Time;durP1;ratioP1;P1;durP2;ratioP2;P2;SDS_P1;SDS_P2;PMS_P1;PMS_P2;Temp;Humidity;BMP_temperature;BMP_pressure;BME280_temperature;BME280_humidity;BME280_pressure;Samples;Min_cycle;Max_cycle;Signal;HPM_P1;HPM_P2
2023/05/03 00:01:48;;;;;;;4.18;1.30;;;8.80;99.90;;;;;;4867625;29;20044;-88
2023/05/03 00:04:15;;;;;;;5.32;1.35;;;8.80;99.90;;;;;;4870594;29;20074;-89
2023/05/03 00:06:43;;;;;;;4.32;1.50;;;8.80;99.90;;;;;;4865467;29;20137;-88
2023/05/03 00:09:09;;;;;;;6.13;1.70;;;8.80;99.90;;;;;;4878524;29;20044;-89
2023/05/03 00:11:35;;;;;;;3.60;1.42;;;8.70;99.90;;;;;;4889668;29;20101;-89
2023/05/03 00:14:01;;;;;;;4.50;1.60;;;8.70;99.90;;;;;;4872036;29;20068;-88
2023/05/03 00:16:27;;;;;;;4.50;1.60;;;8.70;99.90;;;;;;4884678;29;20498;-88
2023/05/03 00:18:52;;;;;;;2.97;1.42;;;8.70;99.90;;;;;;4878793;29;20043;-88
2023/05/03 00:21:18;;;;;;;2.80;1.58;;;8.70;99.90;;;;;;4880742;29;20055;-88
2023/05/03 00:23:43;;;;;;;5.20;1.40;;;8.70;99.90;;;;;;4873883;29;20494;-87
2023/05/03 00:26:09;;;;;;;3.85;1.52;;;8.70;99.90;;;;;;4878190;29;20136;-88
2023/05/03 00:28:34;;;;;;;5.13;1.98;;;8.70;99.90;;;;;;4892260;29;20065;-88
2023/05/03 00:31:08;;;;;;;4.38;1.88;;;8.70;99.90;;;;;;4890186;29;20409;-88
2023/05/03 00:33:34;;;;;;;;;;;8.70;99.90;;;;;;4878051;29;20493;-88
2023/05/03 00:36:07;;;;;;;4.65;1.60;;;8.60;99.70;;;;;;4876815;29;20356;-87
2023/05/03 00:38:32;;;;;;;5.18;1.73;;;8.60;99.90;;;;;;4880007;29;20057;-88
2023/05/03 00:40:58;;;;;;;6.10;1.60;;;8.60;99.90;;;;;;4861591;29;20041;-88
2023/05/03 00:43:23;;;;;;;6.25;1.83;;;8.60;99.90;;;;;;4873047;29;20382;-88
2023/05/03 00:45:49;;;;;;;4.50;1.50;;;8.60;99.90;;;;;;4891219;29;20041;-88
2023/05/03 00:48:17;;;;;;;5.28;1.63;;;8.60;99.90;;;;;;4861295;29;20097;-87
2023/05/03 00:50:43;;;;;;;3.30;1.30;;;8.60;99.90;;;;;;4870428;29;20131;-88
2023/05/03 00:53:09;;;;;;;4.28;1.65;;;8.60;99.90;;;;;;4888461;29;20128;-88
2023/05/03 00:55:35;;;;;;;4.13;1.48;;;8.60;99.90;;;;;;4886770;29;20056;-88
2023/05/03 00:58:01;;;;;;;4.30;1.70;;;8.50;99.90;;;;;;4863288;29;20049;-88
2023/05/03 01:00:27;;;;;;;3.10;1.30;;;8.50;99.90;;;;;;4864605;29;20052;-88
2023/05/03 01:02:53;;;;;;;4.43;1.83;;;8.50;99.90;;;;;;4877016;29;20059;-87
2023/05/03 01:05:21;;;;;;;3.67;1.63;;;8.50;99.90;;;;;;4866153;29;20049;-88
2023/05/03 01:07:56;;;;;;;4.22;1.80;;;8.50;99.90;;;;;;4872486;29;20049;-88
2023/05/03 01:10:40;;;;;;;4.63;1.77;;;8.50;99.90;;;;;;4880878;29;20045;-87
2023/05/03 01:13:15;;;;;;;4.95;2.00;;;8.50;99.90;;;;;;4881705;29;20056;-88
2023/05/03 01:16:12;;;;;;;5.25;1.70;;;8.50;99.90;;;;;;4883377;29;20052;-88
2023/05/03 01:18:42;;;;;;;5.35;2.00;;;8.50;99.90;;;;;;4883889;29;20045;-88
2023/05/03 01:21:09;;;;;;;5.55;1.77;;;8.50;99.90;;;;;;4884001;29;20040;-89
2023/05/03 01:23:56;;;;;;;5.13;1.73;;;8.40;99.90;;;;;;4892041;29;20087;-88
2023/05/03 01:26:26;;;;;;;5.50;2.20;;;8.50;99.90;;;;;;4875525;29;20051;-89
2023/05/03 01:28:53;;;;;;;4.40;1.80;;;8.40;99.90;;;;;;4873372;29;20074;-88
2023/05/03 01:31:27;;;;;;;4.10;1.75;;;8.50;99.90;;;;;;4873487;29;20047;-89
2023/05/03 01:34:09;;;;;;;5.28;1.88;;;8.50;99.90;;;;;;4871637;29;20053;-88
2023/05/03 01:36:36;;;;;;;3.92;1.80;;;8.50;99.90;;;;;;4890670;29;20044;-89
2023/05/03 01:39:15;;;;;;;5.78;2.00;;;8.40;99.90;;;;;;4887144;29;20041;-88
2023/05/03 01:41:41;;;;;;;5.32;1.98;;;8.40;99.90;;;;;;4846250;29;20029;-88
2023/05/03 01:44:08;;;;;;;4.15;1.88;;;8.40;99.90;;;;;;4889825;29;20080;-88
2023/05/03 01:46:33;;;;;;;5.18;1.90;;;8.40;99.90;;;;;;4870230;29;20111;-87
2023/05/03 01:48:59;;;;;;;3.95;1.83;;;8.40;99.90;;;;;;4880928;29;20449;-89
2023/05/03 01:51:25;;;;;;;5.45;2.15;;;8.40;99.90;;;;;;4898169;29;20052;-89
2023/05/03 01:53:50;;;;;;;6.25;2.95;;;8.30;99.90;;;;;;4891514;29;20050;-88
2023/05/03 01:56:16;;;;;;;5.97;2.15;;;8.40;99.90;;;;;;4892959;29;20128;-89
2023/05/03 01:58:41;;;;;;;4.15;2.00;;;8.30;99.90;;;;;;4877263;29;20052;-89
2023/05/03 02:01:07;;;;;;;4.40;1.85;;;8.30;99.90;;;;;;4858379;29;20038;-89
2023/05/03 02:03:33;;;;;;;4.97;2.00;;;8.30;99.90;;;;;;4855370;29;20442;-89
2023/05/03 02:05:59;;;;;;;4.82;2.05;;;8.20;99.90;;;;;;4893587;29;20434;-88
2023/05/03 02:08:24;;;;;;;4.68;2.08;;;8.20;99.90;;;;;;4868892;29;20128;-89
2023/05/03 02:10:50;;;;;;;5.30;2.00;;;8.20;99.90;;;;;;4884822;29;20124;-89
2023/05/03 02:13:16;;;;;;;5.38;2.28;;;8.20;99.90;;;;;;4846101;29;20076;-88
2023/05/03 02:15:41;;;;;;;6.13;2.35;;;8.20;99.90;;;;;;4874712;29;20478;-88
2023/05/03 02:18:08;;;;;;;4.78;2.30;;;8.20;99.90;;;;;;4892423;29;20133;-88
2023/05/03 02:20:36;;;;;;;4.82;2.10;;;8.10;99.90;;;;;;4844675;29;20114;-88
2023/05/03 02:23:03;;;;;;;5.00;2.10;;;8.10;99.90;;;;;;4849041;29;20494;-89
2023/05/03 02:25:29;;;;;;;4.13;2.03;;;8.10;99.90;;;;;;4864250;29;20076;-88
2023/05/03 02:27:54;;;;;;;4.80;2.08;;;8.10;99.90;;;;;;4886496;29;20080;-88
2023/05/03 02:30:20;;;;;;;5.68;2.20;;;8.00;99.90;;;;;;4883053;29;20126;-88
2023/05/03 02:32:45;;;;;;;5.63;2.25;;;8.00;99.90;;;;;;4898790;29;20070;-88
2023/05/03 02:35:11;;;;;;;5.68;2.45;;;8.00;99.90;;;;;;4899767;29;20048;-87
2023/05/03 02:37:37;;;;;;;4.72;2.40;;;7.90;99.90;;;;;;4886912;29;20052;-89
2023/05/03 02:40:04;;;;;;;4.95;2.38;;;7.90;99.90;;;;;;4865635;29;20097;-88
2023/05/03 02:42:30;;;;;;;4.47;2.22;;;7.90;99.90;;;;;;4882226;29;20064;-88
2023/05/03 02:44:56;;;;;;;4.55;2.33;;;7.90;99.90;;;;;;4865356;29;20052;-88
2023/05/03 02:47:21;;;;;;;4.93;2.30;;;7.90;99.90;;;;;;4881255;29;20048;-89
2023/05/03 02:49:47;;;;;;;4.90;2.47;;;7.90;99.90;;;;;;4865003;29;20498;-89
2023/05/03 02:52:13;;;;;;;7.10;2.50;;;7.80;99.90;;;;;;4862215;29;20053;-88
2023/05/03 02:54:38;;;;;;;4.75;2.00;;;7.80;99.90;;;;;;4879184;29;20068;-88
2023/05/03 02:57:04;;;;;;;6.47;2.53;;;7.80;99.90;;;;;;4887642;29;20474;-87
2023/05/03 02:59:31;;;;;;;5.22;2.35;;;7.80;99.90;;;;;;4887249;29;20048;-88
2023/05/03 03:01:57;;;;;;;5.65;2.50;;;7.70;99.90;;;;;;4885145;29;20051;-88
2023/05/03 03:04:23;;;;;;;5.50;2.10;;;7.70;99.90;;;;;;4865982;29;20041;-88
2023/05/03 03:06:52;;;;;;;4.70;2.58;;;7.70;99.90;;;;;;4882530;29;20055;-88
2023/05/03 03:09:18;;;;;;;5.03;2.40;;;7.60;99.90;;;;;;4863166;29;20401;-89
2023/05/03 03:11:44;;;;;;;4.07;2.05;;;7.60;99.90;;;;;;4882614;29;20052;-89
2023/05/03 03:14:10;;;;;;;4.93;2.25;;;7.60;99.90;;;;;;4864053;29;20045;-89
2023/05/03 03:16:36;;;;;;;4.75;2.20;;;7.60;99.90;;;;;;4889675;29;20053;-89
2023/05/03 03:19:02;;;;;;;4.97;2.70;;;7.60;99.90;;;;;;4865373;29;20045;-88
2023/05/03 03:21:27;;;;;;;4.30;2.03;;;7.50;99.90;;;;;;4875284;29;20135;-89
2023/05/03 03:23:54;;;;;;;5.07;2.47;;;7.50;99.90;;;;;;4880628;29;20082;-88
2023/05/03 03:26:20;;;;;;;5.00;2.40;;;7.50;99.90;;;;;;4864637;29;20041;-88
2023/05/03 03:28:45;;;;;;;5.35;2.47;;;7.50;99.90;;;;;;4878667;29;20553;-88
2023/05/03 03:31:11;;;;;;;4.13;2.22;;;7.40;99.90;;;;;;4891551;29;20080;-87
2023/05/03 03:33:36;;;;;;;4.90;2.40;;;7.40;99.90;;;;;;4875750;29;20482;-88
2023/05/03 03:36:02;;;;;;;5.65;2.60;;;7.30;99.90;;;;;;4862366;29;20072;-88
2023/05/03 03:38:28;;;;;;;5.88;2.33;;;7.30;99.90;;;;;;4869664;29;20378;-87
2023/05/03 03:40:54;;;;;;;4.80;2.45;;;7.30;99.90;;;;;;4879013;29;20117;-87
2023/05/03 03:43:19;;;;;;;6.28;2.58;;;7.30;99.90;;;;;;4862683;29;20096;-88
2023/05/03 03:45:45;;;;;;;5.22;2.00;;;7.20;99.90;;;;;;4862713;29;20049;-88
2023/05/03 03:48:12;;;;;;;4.35;2.10;;;7.20;99.90;;;;;;4862885;29;20056;-89
2023/05/03 03:50:37;;;;;;;3.53;2.10;;;7.20;99.90;;;;;;4888294;29;20127;-87
2023/05/03 03:53:03;;;;;;;6.38;2.55;;;7.10;99.90;;;;;;4898281;29;20132;-88
2023/05/03 03:55:29;;;;;;;5.10;2.30;;;7.10;99.90;;;;;;4881471;29;20045;-88
2023/05/03 03:57:54;;;;;;;5.25;2.40;;;7.00;99.90;;;;;;4880954;29;20048;-88
2023/05/03 04:00:20;;;;;;;4.07;2.55;;;7.00;99.90;;;;;;4865750;29;20041;-88
2023/05/03 04:02:45;;;;;;;5.22;2.38;;;7.00;99.90;;;;;;4866757;29;20063;-88
2023/05/03 04:05:11;;;;;;;5.45;2.40;;;7.00;99.90;;;;;;4864411;29;20473;-87
2023/05/03 04:07:37;;;;;;;5.85;2.75;;;6.90;99.90;;;;;;4876036;29;20127;-88
2023/05/03 04:10:02;;;;;;;5.78;2.40;;;6.90;99.90;;;;;;4873482;29;20081;-89
2023/05/03 04:12:29;;;;;;;4.82;2.25;;;6.90;99.90;;;;;;4866625;29;20453;-88
2023/05/03 04:14:55;;;;;;;6.20;2.55;;;6.80;99.90;;;;;;4861441;29;20064;-89
2023/05/03 04:17:21;;;;;;;6.25;2.50;;;6.80;99.90;;;;;;4852868;29;20076;-90
2023/05/03 04:19:47;;;;;;;4.05;2.20;;;6.80;99.90;;;;;;4861052;29;20486;-91
2023/05/03 04:22:13;;;;;;;6.15;2.92;;;6.80;99.90;;;;;;4862259;29;20109;-88
2023/05/03 04:24:39;;;;;;;4.10;2.20;;;6.70;99.90;;;;;;4875453;29;20112;-88
2023/05/03 04:27:05;;;;;;;5.10;2.50;;;6.70;99.90;;;;;;4862203;29;20060;-89
2023/05/03 04:29:30;;;;;;;5.50;2.50;;;6.70;99.90;;;;;;4863184;29;20045;-89
2023/05/03 04:31:56;;;;;;;5.93;2.60;;;6.70;99.90;;;;;;4862759;29;20045;-87
2023/05/03 04:34:22;;;;;;;4.32;2.50;;;6.70;99.90;;;;;;4862161;29;20097;-84
2023/05/03 04:36:48;;;;;;;4.35;2.35;;;6.70;99.90;;;;;;4879018;29;20053;-83
2023/05/03 04:39:14;;;;;;;5.43;2.70;;;6.70;99.90;;;;;;4862171;29;20045;-85
2023/05/03 04:41:40;;;;;;;5.88;2.35;;;6.70;99.90;;;;;;4861973;29;20078;-83
2023/05/03 04:44:06;;;;;;;5.35;2.63;;;6.60;99.90;;;;;;4858124;29;20041;-84
2023/05/03 04:46:32;;;;;;;6.53;2.58;;;6.60;99.90;;;;;;4846252;29;20061;-85
2023/05/03 04:48:58;;;;;;;5.47;2.40;;;6.60;99.90;;;;;;4864588;29;20052;-85
2023/05/03 04:51:24;;;;;;;4.28;2.33;;;6.60;99.90;;;;;;4882422;29;20089;-84
2023/05/03 04:53:49;;;;;;;5.07;2.42;;;6.60;99.90;;;;;;4864686;29;20064;-84
2023/05/03 04:56:15;;;;;;;4.38;2.60;;;6.70;99.90;;;;;;4882110;29;20132;-86
2023/05/03 04:58:41;;;;;;;4.90;2.50;;;6.70;99.90;;;;;;4881780;29;20045;-85
2023/05/03 05:01:07;;;;;;;6.78;2.55;;;6.70;99.90;;;;;;4881587;29;20044;-85
2023/05/03 05:03:33;;;;;;;7.25;2.50;;;6.70;99.90;;;;;;4864938;29;20049;-85
2023/05/03 05:05:58;;;;;;;3.55;2.13;;;6.70;99.90;;;;;;4882219;29;20041;-85
2023/05/03 05:08:24;;;;;;;5.28;2.47;;;6.70;99.90;;;;;;4864803;29;20092;-84
2023/05/03 05:10:49;;;;;;;5.47;2.53;;;6.70;99.90;;;;;;4881736;29;20059;-84
2023/05/03 05:13:16;;;;;;;5.15;2.60;;;6.70;99.90;;;;;;4865057;29;20049;-85
2023/05/03 05:15:41;;;;;;;5.68;2.70;;;6.70;99.90;;;;;;4881103;29;20085;-86
2023/05/03 05:18:08;;;;;;;5.15;2.42;;;6.70;99.90;;;;;;4882050;29;20045;-85
2023/05/03 05:20:33;;;;;;;5.40;2.70;;;6.70;99.90;;;;;;4864792;29;20140;-85
2023/05/03 05:22:59;;;;;;;6.45;2.70;;;6.70;99.90;;;;;;4880979;29;20072;-84
2023/05/03 05:25:24;;;;;;;5.80;2.60;;;6.70;99.90;;;;;;4881587;29;20502;-85
2023/05/03 05:27:50;;;;;;;5.13;2.78;;;6.70;99.90;;;;;;4864657;29;20398;-85
2023/05/03 05:30:16;;;;;;;5.38;2.75;;;6.70;99.90;;;;;;4866334;29;20100;-86
2023/05/03 05:32:41;;;;;;;5.38;2.60;;;6.80;99.90;;;;;;4882665;29;20505;-86
2023/05/03 05:35:08;;;;;;;5.20;2.80;;;6.80;99.90;;;;;;4884255;29;20450;-86
2023/05/03 05:37:34;;;;;;;5.22;2.65;;;6.80;99.90;;;;;;4883062;29;20143;-86
2023/05/03 05:40:00;;;;;;;4.80;3.13;;;6.80;99.90;;;;;;4883229;29;20465;-87
2023/05/03 05:42:25;;;;;;;5.35;2.72;;;6.80;99.90;;;;;;4881639;29;20406;-87
2023/05/03 05:44:51;;;;;;;5.40;2.60;;;6.90;99.90;;;;;;4881095;29;20606;-87
2023/05/03 05:47:17;;;;;;;4.70;2.45;;;6.90;99.90;;;;;;4881894;29;20041;-88
2023/05/03 05:49:42;;;;;;;4.53;2.70;;;6.90;99.90;;;;;;4880200;29;20053;-89
2023/05/03 05:52:08;;;;;;;4.45;2.53;;;7.00;99.90;;;;;;4882103;29;20041;-91
2023/05/03 05:54:33;;;;;;;4.82;2.33;;;7.00;99.90;;;;;;4864922;29;20506;-88
2023/05/03 05:56:59;;;;;;;5.35;2.40;;;7.00;99.90;;;;;;4880834;29;20089;-88
2023/05/03 05:59:25;;;;;;;5.20;2.80;;;7.00;99.90;;;;;;4869690;29;20092;-87
2023/05/03 06:01:51;;;;;;;4.32;2.33;;;7.00;99.90;;;;;;4869579;29;20045;-87
2023/05/03 06:04:16;;;;;;;5.03;1.90;;;7.10;99.90;;;;;;4863989;29;20545;-87
2023/05/03 06:06:42;;;;;;;3.97;2.20;;;7.10;99.90;;;;;;4864385;29;20448;-85
2023/05/03 06:09:08;;;;;;;7.45;1.80;;;7.20;99.90;;;;;;4892165;29;20048;-87
2023/05/03 06:11:34;;;;;;;6.70;1.48;;;7.20;99.90;;;;;;4867457;29;20149;-87
2023/05/03 06:14:02;;;;;;;7.32;2.13;;;7.30;99.90;;;;;;4882108;29;20041;-87
2023/05/03 06:16:28;;;;;;;5.55;2.08;;;7.30;99.70;;;;;;4881761;29;20045;-87
2023/05/03 06:18:54;;;;;;;5.82;1.50;;;7.30;99.50;;;;;;4866768;29;20436;-87
2023/05/03 06:21:20;;;;;;;4.55;1.25;;;7.40;99.10;;;;;;4871575;29;20044;-87
2023/05/03 06:23:46;;;;;;;4.07;1.73;;;7.40;98.30;;;;;;4892995;29;20048;-87
2023/05/03 06:26:11;;;;;;;10.25;1.98;;;7.50;98.30;;;;;;4873078;29;20041;-86
2023/05/03 06:28:37;;;;;;;5.30;1.70;;;7.50;98.70;;;;;;4863882;29;20409;-87
2023/05/03 06:31:02;;;;;;;6.43;1.80;;;7.60;98.80;;;;;;4880931;29;20153;-86
2023/05/03 06:33:28;;;;;;;5.45;1.80;;;7.60;98.80;;;;;;4882173;29;20367;-86
2023/05/03 06:35:53;;;;;;;5.00;1.70;;;7.70;98.90;;;;;;4862427;29;20096;-87
2023/05/03 06:38:20;;;;;;;6.38;1.98;;;7.70;99.10;;;;;;4878597;29;20409;-87
2023/05/03 06:40:46;;;;;;;3.08;1.77;;;7.70;99.10;;;;;;4859727;29;20049;-86
2023/05/03 06:43:12;;;;;;;3.35;1.50;;;7.80;99.30;;;;;;4862256;29;20060;-87
2023/05/03 06:45:41;;;;;;;4.13;1.70;;;7.80;99.40;;;;;;4880082;29;20045;-86
2023/05/03 06:48:07;;;;;;;4.95;1.67;;;7.90;99.50;;;;;;4879409;29;20084;-87
2023/05/03 06:50:33;;;;;;;3.70;1.70;;;7.90;99.50;;;;;;4863637;29;20494;-87
2023/05/03 06:52:59;;;;;;;4.30;1.80;;;7.90;99.50;;;;;;4862749;29;20056;-86
2023/05/03 06:55:24;;;;;;;5.18;1.30;;;8.00;99.60;;;;;;4880470;29;20119;-86
2023/05/03 06:57:51;;;;;;;4.10;1.50;;;8.00;99.50;;;;;;4861685;29;20450;-86
2023/05/03 07:00:18;;;;;;;3.65;1.60;;;8.10;99.30;;;;;;4875314;29;20474;-86
2023/05/03 07:02:44;;;;;;;3.95;1.30;;;8.10;99.40;;;;;;4879753;29;20383;-87
2023/05/03 07:05:10;;;;;;;4.20;1.02;;;8.20;99.00;;;;;;4880989;29;20044;-88
2023/05/03 07:07:35;;;;;;;6.05;1.77;;;8.20;98.00;;;;;;4881066;29;20420;-88
2023/05/03 07:10:01;;;;;;;5.43;1.00;;;8.20;97.80;;;;;;4865990;29;20484;-90
2023/05/03 07:12:27;;;;;;;5.35;1.25;;;8.30;97.70;;;;;;4850433;29;20045;-87
2023/05/03 07:14:56;;;;;;;4.30;1.50;;;8.30;97.40;;;;;;4862850;29;20129;-87
2023/05/03 07:17:22;;;;;;;4.97;1.13;;;8.40;97.60;;;;;;4847885;29;20105;-87
2023/05/03 07:19:49;;;;;;;6.78;1.30;;;8.40;97.40;;;;;;4846305;29;20046;-87
2023/05/03 07:22:15;;;;;;;4.18;0.88;;;8.50;97.00;;;;;;4862061;29;20097;-87
2023/05/03 07:24:40;;;;;;;3.83;1.20;;;8.50;96.50;;;;;;4878427;29;20037;-86
2023/05/03 07:27:06;;;;;;;4.47;1.40;;;8.60;96.80;;;;;;4853319;29;20064;-88
2023/05/03 07:29:32;;;;;;;5.38;1.30;;;8.60;97.20;;;;;;4852872;29;20133;-87
2023/05/03 07:31:58;;;;;;;6.03;1.10;;;8.70;97.40;;;;;;4860968;29;20049;-87
2023/05/03 07:34:24;;;;;;;6.43;1.10;;;8.70;97.30;;;;;;4844814;29;20436;-89
2023/05/03 07:36:50;;;;;;;4.10;0.80;;;8.80;97.10;;;;;;4857858;29;20105;-87
2023/05/03 07:39:16;;;;;;;2.97;1.00;;;8.80;96.50;;;;;;4859653;29;20053;-88
2023/05/03 07:41:42;;;;;;;3.35;1.08;;;8.80;96.50;;;;;;4843365;29;20048;-87
2023/05/03 07:44:08;;;;;;;4.25;1.00;;;8.90;96.90;;;;;;4860517;29;20371;-87
2023/05/03 07:46:34;;;;;;;4.32;1.00;;;8.90;97.10;;;;;;4844315;29;20045;-87
2023/05/03 07:49:03;;;;;;;3.05;1.10;;;9.00;97.00;;;;;;4860789;29;20392;-87
2023/05/03 07:51:33;;;;;;;4.65;0.90;;;9.00;97.20;;;;;;4860244;29;20070;-87
2023/05/03 07:53:59;;;;;;;4.72;1.20;;;9.10;96.80;;;;;;4861155;29;20045;-88
2023/05/03 07:56:26;;;;;;;4.65;1.20;;;9.10;96.60;;;;;;4843817;29;20136;-87
2023/05/03 07:58:52;;;;;;;2.75;1.20;;;9.20;96.90;;;;;;4844286;29;20049;-87
2023/05/03 08:01:20;;;;;;;2.97;1.00;;;9.20;97.20;;;;;;4844524;29;20101;-87
2023/05/03 08:03:49;;;;;;;2.53;0.90;;;9.30;97.20;;;;;;4843030;29;20421;-86
2023/05/03 08:06:15;;;;;;;3.00;1.08;;;9.30;97.00;;;;;;4844505;29;20106;-86
2023/05/03 08:08:41;;;;;;;2.47;1.10;;;9.30;97.20;;;;;;4843936;29;20061;-87
2023/05/03 08:11:07;;;;;;;4.68;1.20;;;9.40;97.60;;;;;;4843301;29;20128;-87
2023/05/03 08:13:33;;;;;;;4.38;1.00;;;9.40;97.50;;;;;;4844134;29;20410;-87
2023/05/03 08:15:59;;;;;;;3.67;1.02;;;9.40;96.50;;;;;;4844251;29;20042;-86
2023/05/03 08:18:25;;;;;;;7.47;1.00;;;9.50;96.40;;;;;;4843507;29;20556;-87
2023/05/03 08:20:51;;;;;;;3.58;0.90;;;9.50;96.10;;;;;;4864141;29;20045;-86
2023/05/03 08:23:17;;;;;;;4.20;0.98;;;9.50;95.60;;;;;;4847938;29;20076;-86
2023/05/03 08:25:44;;;;;;;3.92;1.17;;;9.60;95.60;;;;;;4863378;29;20045;-86
2023/05/03 08:28:10;;;;;;;3.95;1.00;;;9.60;95.50;;;;;;4847881;29;20081;-87
2023/05/03 08:30:35;;;;;;;3.58;1.15;;;9.70;95.70;;;;;;4863971;29;20183;-87
2023/05/03 08:33:01;;;;;;;3.13;1.00;;;9.70;96.20;;;;;;4863538;29;20136;-87
2023/05/03 08:35:27;;;;;;;3.85;1.08;;;9.70;95.70;;;;;;4847798;29;20050;-87
2023/05/03 08:37:53;;;;;;;3.10;1.10;;;9.80;95.50;;;;;;4864017;29;20398;-87
2023/05/03 08:40:21;;;;;;;2.95;1.10;;;9.80;95.80;;;;;;4863117;29;20487;-86
2023/05/03 08:42:47;;;;;;;3.08;1.15;;;9.90;96.10;;;;;;4864094;29;20037;-88
2023/05/03 08:45:14;;;;;;;2.17;1.00;;;10.00;96.20;;;;;;4847408;29;20049;-87
2023/05/03 08:47:43;;;;;;;2.40;1.00;;;10.00;96.60;;;;;;4862926;29;20053;-86
2023/05/03 08:50:10;;;;;;;3.63;1.00;;;10.10;96.30;;;;;;4847379;29;20156;-87
2023/05/03 08:52:37;;;;;;;3.85;1.10;;;10.10;96.40;;;;;;4862913;29;20073;-87
2023/05/03 08:55:03;;;;;;;3.17;1.20;;;10.20;96.60;;;;;;4864494;29;20100;-87
2023/05/03 08:57:30;;;;;;;4.60;1.25;;;10.30;96.00;;;;;;4847714;29;20482;-87
2023/05/03 08:59:59;;;;;;;3.85;1.30;;;10.30;96.10;;;;;;4846506;29;20395;-87
2023/05/03 09:02:26;;;;;;;2.70;1.00;;;10.30;96.40;;;;;;4847240;29;20049;-87
2023/05/03 09:04:52;;;;;;;2.90;0.95;;;10.40;96.70;;;;;;4846906;29;20049;-87
2023/05/03 09:07:19;;;;;;;3.60;1.00;;;10.40;96.50;;;;;;4846461;29;20049;-88
2023/05/03 09:09:48;;;;;;;4.30;1.20;;;10.40;96.70;;;;;;4863712;29;20050;-87
2023/05/03 09:12:36;;;;;;;3.90;1.08;;;10.40;96.90;;;;;;4847153;29;20046;-87
2023/05/03 09:15:03;;;;;;;4.80;1.50;;;10.50;96.50;;;;;;4846202;29;20058;-87
2023/05/03 09:17:28;;;;;;;3.53;1.30;;;10.50;96.80;;;;;;4863543;29;20061;-87
2023/05/03 09:19:57;;;;;;;3.63;1.20;;;10.60;97.40;;;;;;4846770;29;20050;-87
2023/05/03 09:22:26;;;;;;;5.45;1.10;;;10.70;97.30;;;;;;4862664;29;20057;-87
2023/05/03 09:24:56;;;;;;;2.35;1.02;;;10.80;96.90;;;;;;4863167;29;20056;-87
2023/05/03 09:27:23;;;;;;;4.20;1.25;;;10.80;97.20;;;;;;4863528;29;20041;-87
2023/05/03 09:29:49;;;;;;;6.10;1.20;;;10.90;97.50;;;;;;4861944;29;20451;-87
2023/05/03 09:32:16;;;;;;;3.33;1.30;;;11.00;97.40;;;;;;4846617;29;20042;-87
2023/05/03 09:34:42;;;;;;;2.65;1.02;;;11.10;97.30;;;;;;4845448;29;20128;-87
2023/05/03 09:37:08;;;;;;;4.68;1.30;;;11.30;97.50;;;;;;4846391;29;20102;-87
2023/05/03 09:39:35;;;;;;;4.25;1.23;;;11.30;97.50;;;;;;4845946;29;20459;-86
2023/05/03 09:42:11;;;;;;;3.67;1.27;;;11.40;97.10;;;;;;4862217;29;20486;-88
2023/05/03 09:44:47;;;;;;;4.05;1.30;;;11.50;97.00;;;;;;4846185;29;20056;-87
2023/05/03 09:47:13;;;;;;;4.13;1.48;;;11.60;97.20;;;;;;4846498;29;20410;-87
2023/05/03 09:49:39;;;;;;;6.80;1.15;;;11.80;97.00;;;;;;4845307;29;20141;-87
2023/05/03 09:52:06;;;;;;;2.88;1.20;;;11.80;95.20;;;;;;4846322;29;20136;-87
2023/05/03 09:54:34;;;;;;;3.40;1.30;;;11.90;95.20;;;;;;4846112;29;20053;-87
2023/05/03 09:57:01;;;;;;;4.93;1.35;;;12.00;95.60;;;;;;4845495;29;20133;-87
2023/05/03 09:59:27;;;;;;;4.10;1.30;;;12.10;95.30;;;;;;4862925;29;20097;-87
2023/05/03 10:01:57;;;;;;;3.85;1.20;;;12.10;94.20;;;;;;4845814;29;20050;-87
2023/05/03 10:04:26;;;;;;;5.03;1.30;;;12.20;94.00;;;;;;4862215;29;20087;-86
2023/05/03 10:06:59;;;;;;;2.95;1.35;;;12.30;94.20;;;;;;4846003;29;20120;-87
2023/05/03 10:09:34;;;;;;;6.63;1.63;;;12.30;93.70;;;;;;4846268;29;20048;-87
2023/05/03 10:12:03;;;;;;;4.97;1.70;;;12.40;94.60;;;;;;4845264;29;20518;-87
2023/05/03 10:14:29;;;;;;;3.17;1.30;;;12.50;95.50;;;;;;4862739;29;20045;-87
2023/05/03 10:17:12;;;;;;;3.75;1.40;;;12.50;95.40;;;;;;4844564;29;20124;-87
2023/05/03 10:19:59;;;;;;;5.40;1.40;;;12.60;95.70;;;;;;4845847;29;20058;-87
2023/05/03 10:22:25;;;;;;;3.40;1.58;;;12.60;96.00;;;;;;4862496;29;20041;-87
2023/05/03 10:25:01;;;;;;;3.78;1.40;;;12.70;96.40;;;;;;4861454;29;20137;-88
2023/05/03 10:27:50;;;;;;;3.70;1.50;;;12.80;96.90;;;;;;4846035;29;20065;-88
2023/05/03 10:30:25;;;;;;;3.45;1.35;;;12.80;96.80;;;;;;4862422;29;20046;-87
2023/05/03 10:32:51;;;;;;;3.60;1.63;;;12.90;96.90;;;;;;4844506;29;20406;-87
2023/05/03 10:35:18;;;;;;;5.40;1.40;;;13.00;97.20;;;;;;4861944;29;20045;-87
2023/05/03 10:37:47;;;;;;;3.78;1.63;;;13.10;97.30;;;;;;4861888;29;20050;-87
2023/05/03 10:40:15;;;;;;;4.20;1.20;;;13.20;97.60;;;;;;4861621;29;20442;-87
2023/05/03 10:42:51;;;;;;;4.78;1.70;;;13.30;97.00;;;;;;4861133;29;20042;-86
2023/05/03 10:45:27;;;;;;;3.97;1.52;;;13.40;96.90;;;;;;4844856;29;20095;-87
2023/05/03 10:48:11;;;;;;;3.15;1.42;;;13.50;96.90;;;;;;4845105;29;20494;-87
2023/05/03 10:50:40;;;;;;;5.05;1.52;;;13.60;96.60;;;;;;4844995;29;20057;-86
2023/05/03 10:53:06;;;;;;;5.00;1.55;;;13.60;96.40;;;;;;4860978;29;20055;-87
2023/05/03 10:55:32;;;;;;;6.53;1.42;;;13.70;95.00;;;;;;4844970;29;20137;-87
2023/05/03 10:58:00;;;;;;;3.90;1.80;;;13.70;94.30;;;;;;4861858;29;20051;-87
2023/05/03 11:00:36;;;;;;;3.90;1.42;;;13.80;95.60;;;;;;4844580;29;20045;-87
2023/05/03 11:03:24;;;;;;;4.05;1.60;;;14.00;96.80;;;;;;4861912;29;20394;-88
2023/05/03 11:05:50;;;;;;;2.88;1.40;;;14.00;97.20;;;;;;4844762;29;20057;-87
2023/05/03 11:08:21;;;;;;;4.15;1.48;;;14.10;97.50;;;;;;4844525;29;20517;-87
2023/05/03 11:10:50;;;;;;;4.30;1.80;;;14.20;97.80;;;;;;4861261;29;20102;-87
2023/05/03 11:13:16;;;;;;;3.88;1.45;;;14.30;97.90;;;;;;4843874;29;20479;-87
2023/05/03 11:15:42;;;;;;;3.75;1.52;;;14.30;97.50;;;;;;4844730;29;20132;-87
2023/05/03 11:18:10;;;;;;;3.30;1.67;;;14.40;98.00;;;;;;4861484;29;20101;-87
2023/05/03 11:20:37;;;;;;;3.58;1.50;;;14.50;98.10;;;;;;4860374;29;20051;-87
2023/05/03 11:23:03;;;;;;;3.70;1.73;;;14.60;97.30;;;;;;4844782;29;20077;-87
2023/05/03 11:25:29;;;;;;;4.75;1.70;;;14.60;97.40;;;;;;4861228;29;20041;-87
2023/05/03 11:27:55;;;;;;;4.75;1.80;;;14.70;98.00;;;;;;4860254;29;20106;-87
2023/05/03 11:30:20;;;;;;;3.95;1.63;;;14.80;98.20;;;;;;4861442;29;20045;-87
2023/05/03 11:32:46;;;;;;;4.82;1.90;;;14.80;98.20;;;;;;4844324;29;20061;-87
2023/05/03 11:35:14;;;;;;;8.75;2.08;;;14.90;98.30;;;;;;4844165;29;20053;-88
2023/05/03 11:37:41;;;;;;;3.25;1.60;;;15.00;96.20;;;;;;4861093;29;20049;-87
2023/05/03 11:40:14;;;;;;;6.53;1.90;;;15.00;96.10;;;;;;4844621;29;20144;-88
2023/05/03 11:42:57;;;;;;;4.85;1.83;;;15.10;97.10;;;;;;4843746;29;20077;-87
2023/05/03 11:45:31;;;;;;;4.97;1.98;;;15.10;97.20;;;;;;4844769;29;20057;-88
2023/05/03 11:47:57;;;;;;;3.67;1.67;;;15.20;97.10;;;;;;4860748;29;20066;-87
2023/05/03 11:50:45;;;;;;;6.28;1.58;;;15.10;96.60;;;;;;4860205;29;20517;-88
2023/05/03 11:53:15;;;;;;;5.32;1.98;;;15.20;96.90;;;;;;4860995;29;20132;-88
2023/05/03 11:55:42;;;;;;;4.45;2.03;;;15.30;96.60;;;;;;4859725;29;20048;-88
2023/05/03 11:58:28;;;;;;;3.97;1.70;;;15.40;96.90;;;;;;4844764;29;20050;-88
2023/05/03 12:00:55;;;;;;;5.93;1.70;;;15.40;96.80;;;;;;4854417;29;20049;-88
2023/05/03 12:03:26;;;;;;;5.30;1.70;;;15.50;97.20;;;;;;4849269;29;20049;-88
2023/05/03 12:05:52;;;;;;;4.18;1.52;;;15.50;97.00;;;;;;4861395;29;20049;-89
2023/05/03 12:08:21;;;;;;;7.97;2.03;;;15.60;95.10;;;;;;4877802;29;20041;-88
2023/05/03 12:10:50;;;;;;;3.88;1.70;;;15.60;93.80;;;;;;4859550;29;20501;-86
2023/05/03 12:13:29;;;;;;;4.38;1.67;;;15.70;93.60;;;;;;4878664;29;20053;-89
2023/05/03 12:15:59;;;;;;;4.50;1.77;;;15.70;95.00;;;;;;4870133;29;20064;-87
2023/05/03 12:18:26;;;;;;;4.72;1.80;;;15.70;94.30;;;;;;4866700;29;20060;-87
2023/05/03 12:20:56;;;;;;;6.97;2.03;;;15.80;94.30;;;;;;4879049;29;20108;-87
2023/05/03 12:23:23;;;;;;;5.85;2.00;;;15.80;94.60;;;;;;4871651;29;20076;-86
2023/05/03 12:25:52;;;;;;;4.78;1.80;;;15.90;95.10;;;;;;4870649;29;20041;-85
2023/05/03 12:28:18;;;;;;;5.40;2.00;;;15.90;95.30;;;;;;4861113;29;20131;-87
2023/05/03 12:30:44;;;;;;;5.22;2.25;;;16.00;94.80;;;;;;4858247;29;20127;-87
2023/05/03 12:33:09;;;;;;;4.68;1.90;;;16.00;95.20;;;;;;4878723;29;20501;-86
2023/05/03 12:35:35;;;;;;;4.85;1.92;;;16.00;94.30;;;;;;4859437;29;20045;-88
2023/05/03 12:38:03;;;;;;;4.50;1.90;;;16.10;95.00;;;;;;4873272;29;20429;-86
2023/05/03 12:40:29;;;;;;;6.10;2.25;;;16.10;94.80;;;;;;4874671;29;20040;-86
2023/05/03 12:42:57;;;;;;;4.25;1.80;;;16.10;95.20;;;;;;4862119;29;20132;-87
2023/05/03 12:45:26;;;;;;;4.45;1.85;;;16.10;95.20;;;;;;4861099;29;20045;-88
2023/05/03 12:47:51;;;;;;;4.93;1.88;;;16.20;95.20;;;;;;4871637;29;20061;-87
2023/05/03 12:50:17;;;;;;;3.75;1.75;;;16.20;95.30;;;;;;4859249;29;20049;-88
2023/05/03 12:52:43;;;;;;;5.35;2.00;;;16.30;95.60;;;;;;4870090;29;20045;-87
2023/05/03 12:55:09;;;;;;;4.20;2.22;;;16.30;95.90;;;;;;4879084;29;20538;-87